createdAt,value
2018-12-21T00:00:29.444Z,9.45
2018-12-21T00:02:56.780Z,7.08
2018-12-21T00:05:24.098Z,4.22
2018-12-21T00:07:51.334Z,4.45
2018-12-21T00:10:18.661Z,3.75
2018-12-21T00:12:45.902Z,4.40
2018-12-21T00:15:13.235Z,6.47
2018-12-21T00:17:40.587Z,5.25
2018-12-21T00:20:09.068Z,11.75
2018-12-21T00:22:36.558Z,6.50
2018-12-21T00:25:04.530Z,5.33
2018-12-21T00:27:31.974Z,7.78
2018-12-21T00:29:59.392Z,4.90
2018-12-21T00:32:32.357Z,5.47
2018-12-21T00:35:05.104Z,5.08
2018-12-21T00:37:37.985Z,5.60
2018-12-21T00:40:11.322Z,3.90
2018-12-21T00:44:50.264Z,6.12
2018-12-21T00:47:18.564Z,7.03
2018-12-21T00:49:45.934Z,3.55
2018-12-21T00:52:13.437Z,8.05
2018-12-21T00:54:40.773Z,7.00
2018-12-21T00:57:08.100Z,8.20
2018-12-21T00:59:35.437Z,7.25
2018-12-21T01:02:02.961Z,6.45
2018-12-21T01:04:30.314Z,5.92
2018-12-21T01:06:57.673Z,7.80
2018-12-21T01:09:25.091Z,6.45
2018-12-21T01:11:52.466Z,7.12
2018-12-21T01:14:19.818Z,7.58
2018-12-21T01:16:47.166Z,5.97
2018-12-21T01:19:14.535Z,6.58
2018-12-21T01:21:41.941Z,5.83
2018-12-21T01:24:09.366Z,8.55
2018-12-21T01:26:36.616Z,6.90
2018-12-21T01:29:04.060Z,8.18
2018-12-21T01:31:31.393Z,7.90
2018-12-21T01:33:58.671Z,9.08
2018-12-21T01:36:25.969Z,6.97
2018-12-21T01:38:53.295Z,7.87
2018-12-21T01:41:20.637Z,6.55
2018-12-21T01:43:47.866Z,6.95
2018-12-21T01:46:15.209Z,9.40
2018-12-21T01:48:42.549Z,7.12
2018-12-21T01:51:09.816Z,7.53
2018-12-21T01:53:37.061Z,6.20
2018-12-21T01:56:04.420Z,6.70
2018-12-21T01:58:31.783Z,7.20
2018-12-21T02:00:59.119Z,7.60
2018-12-21T02:03:26.447Z,7.97
2018-12-21T02:05:53.799Z,8.03
2018-12-21T02:08:21.126Z,9.98
2018-12-21T02:10:48.484Z,7.70
2018-12-21T02:13:15.800Z,7.28
2018-12-21T02:15:43.031Z,10.60
2018-12-21T02:18:10.351Z,7.50
2018-12-21T02:20:37.699Z,7.45
2018-12-21T02:23:05.073Z,11.65
2018-12-21T02:25:32.452Z,7.22
2018-12-21T02:27:59.669Z,7.80
2018-12-21T02:30:27.018Z,8.05
2018-12-21T02:32:54.342Z,7.85
2018-12-21T02:35:21.802Z,7.92
2018-12-21T02:37:49.049Z,7.60
2018-12-21T02:40:16.406Z,6.37
2018-12-21T02:42:43.747Z,6.90
2018-12-21T02:45:11.076Z,5.95
2018-12-21T02:47:38.415Z,9.05
2018-12-21T02:50:05.811Z,8.43
2018-12-21T02:52:33.042Z,6.10
2018-12-21T02:55:00.343Z,7.03
2018-12-21T02:57:27.681Z,6.45
2018-12-21T02:59:54.915Z,6.53
2018-12-21T03:02:22.155Z,6.87
2018-12-21T03:04:49.518Z,6.78
2018-12-21T03:07:16.758Z,7.15
2018-12-21T03:09:44.108Z,7.45
2018-12-21T03:12:11.432Z,5.25
2018-12-21T03:14:38.785Z,6.37
2018-12-21T03:17:06.124Z,5.20
2018-12-21T03:19:33.455Z,6.47
2018-12-21T03:22:00.707Z,7.28
2018-12-21T03:24:28.074Z,6.97
2018-12-21T03:26:55.506Z,6.90
2018-12-21T03:29:22.890Z,8.05
2018-12-21T03:31:50.372Z,6.92
2018-12-21T03:34:17.740Z,4.67
2018-12-21T03:36:45.112Z,6.87
2018-12-21T03:39:12.378Z,4.92
2018-12-21T03:41:39.747Z,9.60
2018-12-21T03:44:07.081Z,5.42
2018-12-21T03:46:34.436Z,5.90
2018-12-21T03:49:01.785Z,6.25
2018-12-21T03:51:29.160Z,5.83
2018-12-21T03:53:56.390Z,9.55
2018-12-21T03:56:23.595Z,6.87
2018-12-21T03:58:50.949Z,4.30
2018-12-21T04:01:18.422Z,5.08
2018-12-21T04:03:45.746Z,4.47
2018-12-21T04:06:13.031Z,6.03
2018-12-21T04:08:40.396Z,6.00
2018-12-21T04:11:07.638Z,6.70
2018-12-21T04:13:34.976Z,6.17
2018-12-21T04:16:02.370Z,4.47
2018-12-21T04:18:29.711Z,6.03
2018-12-21T04:20:57.070Z,6.95
2018-12-21T04:23:24.409Z,3.65
2018-12-21T04:25:51.827Z,3.08
2018-12-21T04:28:19.298Z,2.52
2018-12-21T04:30:46.692Z,2.70
2018-12-21T04:33:13.917Z,6.28
2018-12-21T04:35:41.298Z,3.83
2018-12-21T04:38:08.629Z,4.55
2018-12-21T04:40:35.911Z,2.65
2018-12-21T04:43:03.268Z,2.77
2018-12-21T04:45:30.493Z,3.62
2018-12-21T04:47:57.909Z,2.42
2018-12-21T04:50:25.273Z,4.25
2018-12-21T04:52:52.595Z,3.25
2018-12-21T04:55:19.951Z,5.37
2018-12-21T04:57:47.159Z,2.62
2018-12-21T05:00:14.437Z,2.70
2018-12-21T05:02:41.900Z,2.50
2018-12-21T05:05:09.273Z,4.90
2018-12-21T05:07:36.589Z,4.70
2018-12-21T05:10:04.333Z,3.92
2018-12-21T05:12:31.696Z,4.05
2018-12-21T05:14:59.057Z,4.20
2018-12-21T05:17:26.378Z,4.87
2018-12-21T05:19:53.805Z,4.53
2018-12-21T05:22:21.143Z,4.40
2018-12-21T05:24:48.442Z,3.80
2018-12-21T05:27:15.876Z,3.87
2018-12-21T05:29:43.216Z,5.30
2018-12-21T05:32:10.553Z,5.45
2018-12-21T05:34:37.769Z,12.53
2018-12-21T05:37:05.137Z,4.55
2018-12-21T05:39:32.425Z,5.22
2018-12-21T05:41:59.679Z,5.40
2018-12-21T05:44:26.999Z,5.60
2018-12-21T05:46:54.417Z,5.10
2018-12-21T05:49:21.785Z,5.92
2018-12-21T05:51:49.213Z,8.38
2018-12-21T05:54:16.478Z,7.45
2018-12-21T05:56:43.817Z,6.08
2018-12-21T05:59:11.110Z,10.53
2018-12-21T06:01:38.486Z,10.30
2018-12-21T06:04:05.851Z,9.65
2018-12-21T06:06:33.093Z,8.45
2018-12-21T06:09:00.502Z,15.70
2018-12-21T06:11:27.764Z,7.30
2018-12-21T06:13:55.123Z,6.10
2018-12-21T06:16:22.510Z,6.40
2018-12-21T06:18:49.779Z,8.85
2018-12-21T06:21:17.172Z,8.18
2018-12-21T06:23:44.640Z,7.75
2018-12-21T06:26:12.078Z,7.72
2018-12-21T06:28:39.339Z,7.00
2018-12-21T06:31:06.734Z,5.28
2018-12-21T06:33:34.114Z,7.30
2018-12-21T06:36:01.478Z,9.45
2018-12-21T06:38:28.824Z,6.10
2018-12-21T06:40:56.164Z,5.10
2018-12-21T06:43:23.457Z,7.95
2018-12-21T06:45:50.813Z,7.42
2018-12-21T06:48:18.051Z,9.10
2018-12-21T06:50:45.360Z,10.80
2018-12-21T06:53:17.946Z,6.50
2018-12-21T06:55:42.003Z,8.85
2018-12-21T06:58:09.320Z,6.33
2018-12-21T07:00:36.652Z,6.20
2018-12-21T07:03:03.978Z,5.25
2018-12-21T07:05:31.321Z,12.73
2018-12-21T07:07:58.668Z,12.25
2018-12-21T07:10:25.967Z,7.95
2018-12-21T07:12:53.223Z,12.45
2018-12-21T07:15:20.611Z,16.00
2018-12-21T07:17:47.999Z,13.58
2018-12-21T07:20:15.338Z,14.30
2018-12-21T07:22:42.697Z,18.48
2018-12-21T07:25:10.083Z,14.93
2018-12-21T07:27:37.458Z,13.70
2018-12-21T07:30:08.007Z,10.43
2018-12-21T07:32:35.227Z,10.43
2018-12-21T07:35:02.613Z,5.55
2018-12-21T07:37:29.891Z,4.92
2018-12-21T07:39:57.266Z,8.98
2018-12-21T07:42:24.607Z,4.78
2018-12-21T07:44:52.037Z,6.97
2018-12-21T07:47:19.407Z,9.60
2018-12-21T07:49:46.769Z,4.53
2018-12-21T07:52:14.053Z,6.95
2018-12-21T07:54:41.363Z,3.08
2018-12-21T07:57:08.727Z,8.60
2018-12-21T07:59:35.983Z,8.68
2018-12-21T08:02:03.339Z,7.03
2018-12-21T08:04:30.711Z,7.03
2018-12-21T08:06:58.046Z,6.55
2018-12-21T08:09:25.414Z,7.95
2018-12-21T08:11:52.828Z,6.87
2018-12-21T08:14:20.172Z,15.00
2018-12-21T08:16:47.477Z,12.18
2018-12-21T08:19:14.733Z,10.65
2018-12-21T08:21:42.060Z,10.03
2018-12-21T08:24:09.422Z,12.35
2018-12-21T08:26:36.763Z,16.30
2018-12-21T08:29:04.119Z,12.60
2018-12-21T08:31:31.469Z,21.97
2018-12-21T08:33:58.835Z,23.12
2018-12-21T08:36:26.172Z,18.90
2018-12-21T08:38:53.540Z,22.02
2018-12-21T08:41:20.943Z,15.13
2018-12-21T08:43:48.307Z,16.70
2018-12-21T08:46:15.622Z,13.93
2018-12-21T08:48:42.985Z,13.55
2018-12-21T08:51:10.303Z,13.88
2018-12-21T08:53:37.647Z,15.03
2018-12-21T08:56:04.985Z,15.48
2018-12-21T08:58:32.341Z,14.40
2018-12-21T09:00:59.697Z,11.78
2018-12-21T09:03:26.959Z,12.50
2018-12-21T09:05:54.255Z,12.35
2018-12-21T09:08:21.587Z,11.45
2018-12-21T09:10:48.900Z,11.28
2018-12-21T09:13:16.280Z,11.15
2018-12-21T09:15:43.611Z,22.42
2018-12-21T09:18:11.082Z,17.37
2018-12-21T09:20:38.438Z,9.90
2018-12-21T09:23:05.775Z,7.47
2018-12-21T09:25:33.116Z,7.15
2018-12-21T09:28:00.458Z,8.08
2018-12-21T09:30:27.951Z,10.05
2018-12-21T09:32:55.291Z,7.47
2018-12-21T09:35:22.627Z,8.63
2018-12-21T09:37:50.022Z,6.42
2018-12-21T09:40:17.346Z,5.08
2018-12-21T09:42:44.586Z,5.17
2018-12-21T09:45:12.034Z,6.12
2018-12-21T09:47:39.361Z,3.70
2018-12-21T09:50:08.494Z,4.55
2018-12-21T09:52:36.696Z,3.72
2018-12-21T09:55:04.548Z,5.28
2018-12-21T09:57:31.775Z,4.15
2018-12-21T09:59:59.108Z,2.77
2018-12-21T10:02:26.455Z,3.70
2018-12-21T10:04:53.855Z,4.75
2018-12-21T10:07:27.582Z,3.83
2018-12-21T10:09:50.585Z,1.85
2018-12-21T10:12:17.916Z,2.60
2018-12-21T10:14:45.299Z,4.08
2018-12-21T10:17:12.713Z,7.87
2018-12-21T10:19:40.099Z,1.98
2018-12-21T10:22:07.451Z,2.20
2018-12-21T10:24:34.759Z,2.45
2018-12-21T10:27:02.117Z,11.90
2018-12-21T10:29:29.434Z,4.83
2018-12-21T10:31:56.835Z,2.15
2018-12-21T10:34:24.148Z,8.18
2018-12-21T10:36:52.984Z,1.67
2018-12-21T10:39:20.436Z,3.40
2018-12-21T10:41:47.816Z,4.22
2018-12-21T10:44:15.150Z,8.00
2018-12-21T10:46:42.544Z,10.35
2018-12-21T10:49:09.874Z,1.70
2018-12-21T10:51:37.269Z,3.83
2018-12-21T10:54:04.671Z,1.70
2018-12-21T10:56:32.002Z,2.55
2018-12-21T10:58:59.363Z,2.42
2018-12-21T11:01:26.694Z,2.40
2018-12-21T11:03:54.078Z,1.80
2018-12-21T11:06:21.452Z,2.98
2018-12-21T11:08:48.850Z,9.70
2018-12-21T11:11:16.181Z,1.67
2018-12-21T11:13:43.544Z,1.80
2018-12-21T11:16:11.030Z,4.55
2018-12-21T11:18:38.344Z,3.27
2018-12-21T11:21:05.695Z,3.08
2018-12-21T11:23:32.922Z,3.42
2018-12-21T11:26:02.042Z,1.47
2018-12-21T11:28:29.450Z,2.55
2018-12-21T11:30:56.799Z,3.72
2018-12-21T11:33:24.065Z,4.10
2018-12-21T11:35:51.391Z,6.03
2018-12-21T11:38:18.763Z,4.80
2018-12-21T11:40:46.172Z,6.10
2018-12-21T11:43:16.504Z,11.28
2018-12-21T11:45:43.880Z,5.25
2018-12-21T11:48:11.199Z,6.78
2018-12-21T11:50:38.578Z,9.33
2018-12-21T11:53:06.005Z,4.28
2018-12-21T11:55:33.370Z,5.20
2018-12-21T11:58:00.716Z,9.25
2018-12-21T12:00:28.130Z,7.60
2018-12-21T12:02:55.534Z,11.53
2018-12-21T12:05:29.477Z,17.82
2018-12-21T12:07:56.845Z,13.60
2018-12-21T12:10:24.111Z,14.53
2018-12-21T12:12:51.461Z,7.40
2018-12-21T12:15:18.817Z,6.60
2018-12-21T12:17:46.049Z,14.58
2018-12-21T12:20:13.413Z,8.23
2018-12-21T12:22:40.825Z,9.18
2018-12-21T12:25:08.285Z,18.85
2018-12-21T12:27:35.677Z,17.62
2018-12-21T12:30:03.547Z,15.55
2018-12-21T12:32:30.796Z,17.45
2018-12-21T12:34:58.137Z,9.45
2018-12-21T12:37:25.517Z,18.55
2018-12-21T12:39:52.842Z,19.82
2018-12-21T12:42:20.164Z,8.28
2018-12-21T12:44:47.501Z,12.58
2018-12-21T12:47:14.841Z,6.58
2018-12-21T12:49:42.192Z,10.68
2018-12-21T12:52:09.627Z,16.23
2018-12-21T12:54:36.985Z,15.30
2018-12-21T12:57:04.429Z,14.90
2018-12-21T12:59:31.758Z,16.10
2018-12-21T13:01:59.163Z,19.85
2018-12-21T13:04:26.499Z,4.90
2018-12-21T13:06:53.854Z,4.65
2018-12-21T13:09:21.189Z,9.35
2018-12-21T13:11:48.522Z,9.00
2018-12-21T13:14:16.606Z,8.18
2018-12-21T13:16:44.153Z,5.17
2018-12-21T13:19:11.471Z,10.10
2018-12-21T13:21:38.921Z,14.68
2018-12-21T13:24:06.282Z,11.75
2018-12-21T13:26:33.687Z,12.30
2018-12-21T13:29:01.066Z,11.22
2018-12-21T13:31:28.479Z,10.60
2018-12-21T13:33:55.904Z,13.45
2018-12-21T13:36:23.323Z,7.62
2018-12-21T13:38:50.741Z,17.27
2018-12-21T13:41:18.092Z,11.60
2018-12-21T13:43:45.446Z,7.87
2018-12-21T13:46:12.820Z,8.75
2018-12-21T13:48:40.246Z,9.23
2018-12-21T13:51:07.712Z,8.10
2018-12-21T13:53:35.024Z,12.98
2018-12-21T13:56:02.489Z,10.82
2018-12-21T13:58:29.812Z,13.95
2018-12-21T14:00:57.209Z,26.65
2018-12-21T14:03:24.660Z,8.68
2018-12-21T14:05:52.042Z,7.90
2018-12-21T14:08:19.506Z,8.98
2018-12-21T14:10:47.478Z,5.47
2018-12-21T14:13:14.942Z,7.20
2018-12-21T14:15:42.350Z,13.20
2018-12-21T14:18:09.778Z,9.33
2018-12-21T14:20:37.172Z,19.92
2018-12-21T14:23:04.716Z,10.40
2018-12-21T14:25:32.054Z,10.93
2018-12-21T14:27:59.520Z,6.47
2018-12-21T14:30:26.952Z,8.80
2018-12-21T14:32:54.341Z,12.23
2018-12-21T14:35:21.777Z,13.48
2018-12-21T14:37:49.174Z,10.40
2018-12-21T14:40:16.539Z,4.53
2018-12-21T14:42:44.027Z,5.20
2018-12-21T14:45:11.393Z,6.22
2018-12-21T14:47:38.745Z,4.40
2018-12-21T14:50:08.051Z,11.12
2018-12-21T14:52:35.506Z,4.47
2018-12-21T14:55:03.095Z,5.78
2018-12-21T14:57:30.387Z,4.55
2018-12-21T14:59:57.708Z,3.52
2018-12-21T15:02:25.117Z,2.55
2018-12-21T15:04:52.747Z,2.35
2018-12-21T15:07:20.215Z,2.15
2018-12-21T15:09:47.801Z,2.05
2018-12-21T15:12:15.149Z,2.65
2018-12-21T15:14:42.530Z,5.45
2018-12-21T15:17:09.971Z,4.08
2018-12-21T15:19:37.374Z,5.80
2018-12-21T15:22:04.852Z,7.90
2018-12-21T15:24:32.955Z,10.95
2018-12-21T15:27:00.283Z,10.32
2018-12-21T15:29:27.732Z,14.85
2018-12-21T15:31:55.085Z,8.53
2018-12-21T15:34:22.559Z,7.28
2018-12-21T15:36:49.914Z,6.95
2018-12-21T15:39:17.335Z,10.20
2018-12-21T15:41:44.822Z,4.67
2018-12-21T15:44:12.336Z,4.37
2018-12-21T15:46:39.701Z,3.62
2018-12-21T15:49:07.175Z,5.40
2018-12-21T15:51:34.510Z,5.05
2018-12-21T15:54:02.206Z,6.03
2018-12-21T15:56:29.689Z,4.50
2018-12-21T15:58:57.065Z,5.70
2018-12-21T16:01:24.434Z,6.50
2018-12-21T16:03:51.891Z,5.60
2018-12-21T16:06:19.234Z,4.83
2018-12-21T16:08:47.673Z,7.65
2018-12-21T16:11:15.035Z,12.40
2018-12-21T16:13:42.537Z,4.20
2018-12-21T16:16:09.977Z,9.48
2018-12-21T16:18:37.337Z,7.97
2018-12-21T16:21:04.705Z,7.95
2018-12-21T16:23:32.169Z,7.67
2018-12-21T16:26:03.478Z,5.25
2018-12-21T16:28:28.909Z,4.00
2018-12-21T16:30:56.326Z,4.03
2018-12-21T16:33:23.802Z,5.87
2018-12-21T16:35:51.178Z,12.85
2018-12-21T16:38:18.613Z,9.53
2018-12-21T16:40:45.985Z,4.67
2018-12-21T16:43:13.432Z,8.70
2018-12-21T16:45:40.842Z,7.70
2018-12-21T16:48:08.104Z,4.15
2018-12-21T16:50:35.536Z,9.25
2018-12-21T16:53:02.878Z,9.43
2018-12-21T16:55:30.252Z,21.73
2018-12-21T16:57:57.633Z,18.98
2018-12-21T17:00:24.950Z,13.03
2018-12-21T17:02:52.374Z,25.30
2018-12-21T17:05:19.714Z,5.42
2018-12-21T17:07:47.042Z,9.33
2018-12-21T17:10:18.961Z,7.08
2018-12-21T17:12:46.392Z,8.85
2018-12-21T17:15:13.845Z,8.05
2018-12-21T17:17:41.254Z,7.37
2018-12-21T17:20:09.461Z,11.88
2018-12-21T17:22:36.852Z,10.82
2018-12-21T17:25:06.058Z,13.53
2018-12-21T17:27:33.446Z,12.78
2018-12-21T17:30:00.778Z,19.48
2018-12-21T17:32:28.181Z,19.55
2018-12-21T17:34:55.961Z,15.55
2018-12-21T17:37:23.761Z,6.85
2018-12-21T17:39:51.202Z,4.28
2018-12-21T17:42:18.741Z,3.50
2018-12-21T17:44:46.264Z,4.58
2018-12-21T17:47:13.722Z,4.62
2018-12-21T17:49:41.385Z,4.60
2018-12-21T17:52:08.755Z,5.20
2018-12-21T17:54:36.116Z,9.10
2018-12-21T17:57:03.574Z,6.15
2018-12-21T17:59:31.046Z,9.18
2018-12-21T18:01:58.430Z,6.50
2018-12-21T18:04:28.036Z,7.50
2018-12-21T18:06:55.502Z,12.53
2018-12-21T18:09:24.302Z,17.37
2018-12-21T18:11:57.208Z,10.82
2018-12-21T18:14:21.736Z,13.00
2018-12-21T18:16:49.229Z,32.38
2018-12-21T18:19:16.669Z,39.83
2018-12-21T18:21:49.929Z,27.27
2018-12-21T18:24:17.342Z,27.55
2018-12-21T18:26:44.749Z,13.48
2018-12-21T18:29:12.383Z,15.18
2018-12-21T18:31:48.526Z,16.55
2018-12-21T18:34:20.004Z,45.67
2018-12-21T18:36:47.385Z,24.05
2018-12-21T18:39:15.142Z,18.60
2018-12-21T18:41:42.685Z,13.83
2018-12-21T18:44:10.235Z,15.20
2018-12-21T18:46:37.599Z,9.70
2018-12-21T18:49:05.014Z,11.28
2018-12-21T18:51:32.496Z,18.57
2018-12-21T18:53:59.888Z,33.50
2018-12-21T18:56:29.340Z,18.12
2018-12-21T18:58:56.844Z,9.55
2018-12-21T19:01:25.009Z,17.55
2018-12-21T19:03:52.387Z,14.70
2018-12-21T19:06:19.931Z,3.83
2018-12-21T19:08:47.370Z,13.98
2018-12-21T19:11:14.904Z,3.25
2018-12-21T19:13:42.410Z,5.37
2018-12-21T19:16:09.837Z,1.37
2018-12-21T19:18:37.434Z,1.52
2018-12-21T19:21:04.802Z,1.50
2018-12-21T19:23:32.354Z,3.80
2018-12-21T19:25:59.753Z,1.65
2018-12-21T19:28:27.219Z,4.87
2018-12-21T19:30:54.762Z,14.55
2018-12-21T19:33:22.333Z,11.00
2018-12-21T19:35:50.842Z,10.00
2018-12-21T19:38:18.338Z,11.57
2018-12-21T19:40:46.358Z,11.97
2018-12-21T19:43:13.942Z,26.70
2018-12-21T19:45:41.716Z,12.07
2018-12-21T19:48:09.258Z,9.18
2018-12-21T19:50:37.133Z,4.80
2018-12-21T19:53:04.628Z,6.83
2018-12-21T19:55:53.200Z,7.55
2018-12-21T19:58:20.716Z,4.97
2018-12-21T20:00:48.250Z,1.45
2018-12-21T20:03:16.398Z,1.80
2018-12-21T20:05:43.943Z,1.15
2018-12-21T20:08:11.704Z,1.98
2018-12-21T20:10:39.539Z,1.40
2018-12-21T20:13:08.653Z,4.37
2018-12-21T20:15:36.176Z,1.62
2018-12-21T20:18:04.055Z,1.92
2018-12-21T20:20:31.676Z,1.27
2018-12-21T20:22:59.444Z,1.47
2018-12-21T20:25:27.104Z,1.00
2018-12-21T20:27:54.904Z,1.10
2018-12-21T20:30:23.204Z,1.03
2018-12-21T20:32:50.794Z,4.37
2018-12-21T20:35:18.552Z,1.00
2018-12-21T20:37:46.059Z,0.83
2018-12-21T20:40:13.690Z,1.00
2018-12-21T20:42:41.216Z,1.10
2018-12-21T20:45:11.537Z,1.00
2018-12-21T20:47:39.464Z,0.87
2018-12-21T20:50:10.922Z,0.80
2018-12-21T20:52:38.994Z,1.80
2018-12-21T20:55:07.808Z,0.80
2018-12-21T20:57:36.564Z,1.27
2018-12-21T21:00:07.958Z,0.90
2018-12-21T21:02:35.987Z,0.80
2018-12-21T21:05:03.888Z,1.63
2018-12-21T21:07:31.876Z,0.63
2018-12-21T21:09:59.325Z,1.00
2018-12-21T21:12:26.760Z,1.30
2018-12-21T21:14:54.339Z,1.00
2018-12-21T21:17:21.862Z,0.90
2018-12-21T21:19:49.447Z,0.87
2018-12-21T21:22:16.905Z,1.03
2018-12-21T21:24:46.155Z,0.90
2018-12-21T21:27:13.701Z,1.00
2018-12-21T21:29:41.197Z,0.70
2018-12-21T21:32:08.646Z,0.70
2018-12-21T21:34:36.181Z,0.70
2018-12-21T21:37:03.705Z,1.17
2018-12-21T21:39:31.218Z,0.77
2018-12-21T21:41:58.716Z,0.87
2018-12-21T21:44:26.121Z,0.70
2018-12-21T21:46:55.187Z,1.00
2018-12-21T21:49:22.591Z,0.60
2018-12-21T21:51:50.078Z,2.40
2018-12-21T21:54:17.846Z,1.03
2018-12-21T21:56:45.357Z,5.93
2018-12-21T21:59:12.810Z,6.07
2018-12-21T22:01:40.283Z,12.70
2018-12-21T22:04:07.752Z,4.17
2018-12-21T22:06:35.119Z,0.80
2018-12-21T22:09:03.611Z,1.47
2018-12-21T22:11:30.971Z,2.40
2018-12-21T22:13:58.465Z,1.83
2018-12-21T22:16:25.944Z,1.30
2018-12-21T22:18:53.364Z,0.87
2018-12-21T22:21:20.816Z,0.70
2018-12-21T22:23:48.165Z,4.90
2018-12-21T22:26:15.627Z,1.00
2018-12-21T22:28:43.050Z,0.90
2018-12-21T22:31:10.506Z,1.43
2018-12-21T22:33:37.972Z,0.80
2018-12-21T22:36:05.296Z,0.80
2018-12-21T22:38:32.685Z,4.10
2018-12-21T22:41:00.048Z,10.43
2018-12-21T22:43:27.534Z,1.40
2018-12-21T22:45:54.980Z,0.87
2018-12-21T22:48:22.411Z,1.00
2018-12-21T22:50:49.837Z,0.90
2018-12-21T22:53:17.321Z,1.60
2018-12-21T22:55:44.673Z,1.13
2018-12-21T22:58:12.123Z,1.13
2018-12-21T23:00:40.161Z,0.90
2018-12-21T23:03:07.725Z,0.97
2018-12-21T23:05:35.037Z,1.57
2018-12-21T23:08:02.491Z,0.93
2018-12-21T23:10:29.985Z,0.90
2018-12-21T23:12:57.321Z,1.13
2018-12-21T23:15:24.673Z,0.73
2018-12-21T23:17:51.957Z,1.07
2018-12-21T23:20:19.301Z,0.80
2018-12-21T23:22:46.588Z,0.77
2018-12-21T23:25:13.987Z,0.60
2018-12-21T23:27:41.251Z,0.70
2018-12-21T23:30:08.983Z,0.80
2018-12-21T23:32:36.339Z,0.70
2018-12-21T23:35:04.633Z,0.60
2018-12-21T23:37:31.888Z,0.60
2018-12-21T23:39:59.384Z,0.80
2018-12-21T23:42:26.738Z,2.13
2018-12-21T23:44:54.006Z,0.83
2018-12-21T23:47:21.410Z,0.60
2018-12-21T23:49:48.793Z,0.90
2018-12-21T23:52:16.154Z,0.90
2018-12-21T23:54:43.501Z,0.80
2018-12-21T23:57:10.895Z,0.83
2018-12-21T23:59:38.268Z,0.73
